Time;durP1;ratioP1;P1;durP2;ratioP2;P2;SDS_P1;SDS_P2;PMS_P1;PMS_P2;Temp;Humidity;BMP_temperature;BMP_pressure;BME280_temperature;BME280_humidity;BME280_pressure;Samples;Min_cycle;Max_cycle;Signal;HPM_P1;HPM_P2
2021/06/18 00:02:08;;;;;;;8.70;6.43;;;;;;;-143.90;100.00;58478.06;5068059;28;20219;-70
2021/06/18 00:04:34;;;;;;;7.60;5.67;;;;;;;-143.90;100.00;58478.06;5068342;28;20203;-69
2021/06/18 00:06:59;;;;;;;9.30;5.37;;;;;;;-143.90;100.00;58478.06;5066301;28;20211;-69
2021/06/18 00:09:25;;;;;;;6.40;5.53;;;;;;;-143.90;100.00;58478.06;5068547;28;20207;-69
2021/06/18 00:11:50;;;;;;;7.73;5.97;;;;;;;-143.90;100.00;58478.06;5051648;28;20255;-69
2021/06/18 00:14:16;;;;;;;6.83;5.57;;;;;;;-143.90;100.00;58478.06;5051892;28;20572;-71
2021/06/18 00:16:41;;;;;;;9.57;5.60;;;;;;;-143.90;100.00;58478.06;5068431;28;20173;-69
2021/06/18 00:19:07;;;;;;;7.63;6.00;;;;;;;-143.90;100.00;58478.06;5067563;28;20203;-69
2021/06/18 00:21:33;;;;;;;7.63;6.20;;;;;;;-143.90;100.00;58478.06;5068344;28;20160;-71
2021/06/18 00:23:58;;;;;;;10.03;5.63;;;;;;;-143.90;100.00;58478.06;5067315;28;20847;-73
2021/06/18 00:26:23;;;;;;;7.40;5.60;;;;;;;-143.90;100.00;58478.06;5066112;28;20168;-69
2021/06/18 00:28:50;;;;;;;7.03;6.03;;;;;;;-143.90;100.00;58478.06;5052313;28;20208;-72
2021/06/18 00:31:16;;;;;;;6.00;5.00;;;;;;;-143.90;100.00;58478.06;5070991;28;20733;-71
2021/06/18 00:33:41;;;;;;;8.10;6.30;;;;;;;-143.90;100.00;58478.06;5071455;28;20457;-68
2021/06/18 00:36:07;;;;;;;10.00;5.80;;;;;;;-143.90;100.00;58478.06;5071472;28;20592;-68
2021/06/18 00:38:33;;;;;;;8.70;6.53;;;;;;;-143.90;100.00;58478.06;5071803;28;20157;-71
2021/06/18 00:40:58;;;;;;;8.47;6.30;;;;;;;-143.90;100.00;58478.06;5072114;28;20225;-69
2021/06/18 00:43:24;;;;;;;9.40;7.00;;;;;;;-143.90;100.00;58478.06;5068860;28;20168;-67
2021/06/18 00:45:49;;;;;;;7.73;6.70;;;;;;;-143.90;100.00;58478.06;5067407;28;20228;-76
2021/06/18 00:48:17;;;;;;;7.37;6.57;;;;;;;-143.90;100.00;58478.06;5051494;28;20204;-74
2021/06/18 00:50:43;;;;;;;8.33;6.47;;;;;;;-143.90;100.00;58478.06;5066013;28;20204;-68
2021/06/18 00:53:08;;;;;;;9.37;7.93;;;;;;;-143.90;100.00;58478.06;5071657;28;20407;-69
2021/06/18 00:55:34;;;;;;;8.57;7.53;;;;;;;-143.90;100.00;58478.06;5071502;28;20402;-67
2021/06/18 00:58:02;;;;;;;9.23;7.10;;;;;;;-143.90;100.00;58478.06;5067013;28;20168;-79
2021/06/18 01:00:27;;;;;;;8.13;5.80;;;;;;;-143.90;100.00;58478.06;5068603;28;20172;-74
2021/06/18 01:02:54;;;;;;;12.70;6.90;;;;;;;-143.90;100.00;58478.06;5062325;28;20462;-69
2021/06/18 01:05:22;;;;;;;10.23;7.70;;;;;;;-143.90;100.00;58478.06;5070790;28;20215;-70
2021/06/18 01:07:52;;;;;;;8.90;6.37;;;;;;;-143.90;100.00;58478.06;5056325;28;20423;-71
2021/06/18 01:10:44;;;;;;;9.10;6.80;;;;;;;-143.90;100.00;58478.06;5051226;28;20438;-79
2021/06/18 01:13:39;;;;;;;8.43;6.67;;;;;;;-143.90;100.00;58478.06;5047050;28;20556;-69
2021/06/18 01:16:08;;;;;;;10.07;7.27;;;;;;;-143.90;100.00;58478.06;5070781;28;20413;-73
2021/06/18 01:19:12;;;;;;;8.50;7.00;;;;;;;-143.90;100.00;58478.06;5069591;28;20423;-74
2021/06/18 01:21:42;;;;;;;13.70;9.10;;;;;;;-143.90;100.00;58478.06;4997697;28;20439;-69
2021/06/18 01:24:20;;;;;;;9.00;6.97;;;;;;;-143.90;100.00;58478.06;5008368;28;20464;-69
2021/06/18 01:27:04;;;;;;;10.10;8.20;;;;;;;-143.90;100.00;58478.06;5044954;28;20492;-71
2021/06/18 01:29:37;;;;;;;8.77;7.60;;;;;;;-143.90;100.00;58478.06;5055827;28;20502;-69
2021/06/18 01:32:08;;;;;;;10.33;7.60;;;;;;;-143.90;100.00;58478.06;5070671;28;20411;-69
2021/06/18 01:34:35;;;;;;;14.50;9.90;;;;;;;-143.90;100.00;58478.06;5070199;28;20415;-71
2021/06/18 01:37:11;;;;;;;9.70;7.87;;;;;;;-143.90;100.00;58478.06;5068636;28;20414;-67
2021/06/18 01:39:38;;;;;;;11.10;8.70;;;;;;;-143.90;100.00;58478.06;5052541;28;20422;-76
2021/06/18 01:42:06;;;;;;;12.23;9.60;;;;;;;-143.90;100.00;58478.06;5053702;28;20411;-74
2021/06/18 01:44:34;;;;;;;14.37;10.07;;;;;;;-143.90;100.00;58478.06;5070323;28;20450;-71
2021/06/18 01:47:01;;;;;;;16.83;9.17;;;;;;;-143.90;100.00;58478.06;5070710;28;20427;-70
2021/06/18 01:49:28;;;;;;;12.43;9.60;;;;;;;-143.90;100.00;58478.06;5066954;28;20443;-70
2021/06/18 01:51:56;;;;;;;13.77;11.57;;;;;;;-143.90;100.00;58478.06;5068610;28;20418;-69
2021/06/18 01:54:27;;;;;;;12.50;10.30;;;;;;;-143.90;100.00;58478.06;5060706;28;20414;-68
2021/06/18 01:56:54;;;;;;;13.20;10.23;;;;;;;-143.90;100.00;58478.06;5069986;28;20936;-78
2021/06/18 01:59:23;;;;;;;15.43;10.40;;;;;;;-143.90;100.00;58478.06;5068311;28;20431;-73
2021/06/18 02:01:50;;;;;;;12.80;10.30;;;;;;;-143.90;100.00;58478.06;5051238;28;20466;-71
2021/06/18 02:04:16;;;;;;;18.83;11.67;;;;;;;-143.90;100.00;58478.06;5051398;28;20509;-70
2021/06/18 02:06:43;;;;;;;13.27;11.20;;;;;;;-143.90;100.00;58478.06;5063947;28;20415;-70
2021/06/18 02:09:14;;;;;;;11.47;10.27;;;;;;;-143.90;100.00;58478.06;5070525;28;20439;-71
2021/06/18 02:11:40;;;;;;;15.00;10.80;;;;;;;-143.90;100.00;58478.06;5069445;28;20411;-70
2021/06/18 02:14:12;;;;;;;13.60;11.10;;;;;;;-143.90;100.00;58478.06;5068723;28;20836;-72
2021/06/18 02:16:41;;;;;;;11.97;10.60;;;;;;;-143.90;100.00;58478.06;5052380;28;20437;-69
2021/06/18 02:19:08;;;;;;;13.00;10.10;;;;;;;-143.90;100.00;58478.06;5064828;28;20506;-70
2021/06/18 02:21:34;;;;;;;10.93;9.60;;;;;;;-143.90;100.00;58478.06;5063328;28;20446;-72
2021/06/18 02:24:01;;;;;;;9.90;8.70;;;;;;;-143.90;100.00;58478.06;5064880;28;20557;-69
2021/06/18 02:26:26;;;;;;;9.87;8.03;;;;;;;-143.90;100.00;58478.06;5050804;28;20415;-76
2021/06/18 02:28:53;;;;;;;14.77;9.43;;;;;;;-143.90;100.00;58478.06;5033313;28;20443;-69
2021/06/18 02:31:23;;;;;;;14.60;9.37;;;;;;;-143.90;100.00;58478.06;5052997;28;20183;-83
2021/06/18 02:33:52;;;;;;;13.70;9.40;;;;;;;-143.90;100.00;58478.06;5067016;28;20774;-72
2021/06/18 02:36:18;;;;;;;13.00;10.13;;;;;;;-143.90;100.00;58478.06;5069232;28;20414;-77
2021/06/18 02:38:44;;;;;;;16.77;10.50;;;;;;;-143.90;100.00;58478.06;5064488;28;20474;-74
2021/06/18 02:41:11;;;;;;;16.53;11.60;;;;;;;-143.90;100.00;58478.06;5050411;28;20407;-74
2021/06/18 02:43:36;;;;;;;13.13;10.20;;;;;;;-143.90;100.00;58478.06;5068508;28;20433;-69
2021/06/18 02:46:02;;;;;;;11.80;9.50;;;;;;;-143.90;100.00;58478.06;5069250;28;20454;-69
2021/06/18 02:48:51;;;;;;;11.73;9.80;;;;;;;-143.90;100.00;58478.06;5069143;28;20180;-80
2021/06/18 02:51:30;;;;;;;14.13;11.13;;;;;;;-143.90;100.00;58478.06;5063985;28;20534;-69
2021/06/18 02:54:37;;;;;;;19.40;11.90;;;;;;;-143.90;100.00;58478.06;5062800;28;20414;-71
2021/06/18 02:57:21;;;;;;;13.80;10.07;;;;;;;-143.90;100.00;58478.06;5033041;28;20865;-68
2021/06/18 03:00:07;;;;;;;12.80;9.70;;;;;;;-143.90;100.00;58478.06;5069331;28;20475;-68
2021/06/18 03:02:42;;;;;;;10.10;8.53;;;;;;;-143.90;100.00;58478.06;5055901;28;20888;-69
2021/06/18 03:05:10;;;;;;;10.40;9.30;;;;;;;-143.90;100.00;58478.06;5057940;28;20497;-76
2021/06/18 03:07:38;;;;;;;10.67;8.07;;;;;;;-143.90;100.00;58478.06;5069550;28;20407;-78
2021/06/18 03:10:09;;;;;;;9.83;8.47;;;;;;;-143.90;100.00;58478.06;5068872;28;20418;-67
2021/06/18 03:12:41;;;;;;;9.60;8.57;;;;;;;-143.90;100.00;58478.06;5066023;28;20467;-69
2021/06/18 03:15:09;;;;;;;11.20;9.20;;;;;;;-143.90;100.00;58478.06;5069096;28;20776;-74
2021/06/18 03:17:38;;;;;;;12.47;8.53;;;;;;;-143.90;100.00;58478.06;5069365;28;20822;-68
2021/06/18 03:20:11;;;;;;;12.10;9.63;;;;;;;-143.90;100.00;58478.06;5067440;28;20407;-68
2021/06/18 03:22:37;;;;;;;11.47;9.10;;;;;;;-143.90;100.00;58478.06;5068729;28;20921;-69
2021/06/18 03:25:05;;;;;;;12.50;10.00;;;;;;;-143.90;100.00;58478.06;5067259;28;20549;-68
2021/06/18 03:27:33;;;;;;;12.33;9.83;;;;;;;-143.90;100.00;58478.06;5066566;28;20426;-73
2021/06/18 03:30:00;;;;;;;12.80;10.10;;;;;;;-143.90;100.00;58478.06;5060539;28;20435;-70
2021/06/18 03:32:26;;;;;;;13.13;11.00;;;;;;;-143.90;100.00;58478.06;5068545;28;20609;-69
2021/06/18 03:34:53;;;;;;;13.23;10.90;;;;;;;-143.90;100.00;58478.06;5064414;28;20925;-70
2021/06/18 03:37:19;;;;;;;14.53;10.60;;;;;;;-143.90;100.00;58478.06;5061138;28;20200;-68
2021/06/18 03:39:46;;;;;;;13.40;10.57;;;;;;;-143.90;100.00;58478.06;5063983;28;20421;-78
2021/06/18 03:42:12;;;;;;;15.33;13.00;;;;;;;-143.90;100.00;58478.06;5049965;28;20917;-70
2021/06/18 03:44:38;;;;;;;12.83;10.53;;;;;;;-143.90;100.00;58478.06;5048507;28;20481;-77
2021/06/18 03:47:06;;;;;;;16.03;12.10;;;;;;;-143.90;100.00;58478.06;5065808;28;20233;-70
2021/06/18 03:49:33;;;;;;;14.10;10.97;;;;;;;-143.90;100.00;58478.06;5067689;28;20513;-72
2021/06/18 03:51:58;;;;;;;12.53;10.83;;;;;;;-143.90;100.00;58478.06;5048611;28;20414;-73
2021/06/18 03:54:24;;;;;;;13.37;10.43;;;;;;;-143.90;100.00;58478.06;5051246;28;20423;-69
2021/06/18 03:56:52;;;;;;;11.47;9.30;;;;;;;-143.90;100.00;58478.06;5056927;28;20222;-74
2021/06/18 03:59:19;;;;;;;14.40;10.50;;;;;;;-143.90;100.00;58478.06;5060398;28;20173;-69
2021/06/18 04:01:49;;;;;;;11.37;9.00;;;;;;;-143.90;100.00;58478.06;5067694;28;20461;-70
2021/06/18 04:04:16;;;;;;;10.13;8.33;;;;;;;-143.90;100.00;58478.06;5056072;28;20455;-70
2021/06/18 04:06:42;;;;;;;11.47;9.17;;;;;;;-143.90;100.00;58478.06;5075183;28;20460;-69
2021/06/18 04:09:08;;;;;;;11.83;9.17;;;;;;;-143.90;100.00;58478.06;5070553;28;20442;-72
2021/06/18 04:11:35;;;;;;;14.90;8.90;;;;;;;-143.90;100.00;58478.06;5068843;28;20855;-74
2021/06/18 04:14:02;;;;;;;10.47;9.03;;;;;;;-143.90;100.00;58478.06;5054468;28;20470;-81
2021/06/18 04:16:28;;;;;;;12.80;8.33;;;;;;;-143.90;100.00;58478.06;5061737;28;20904;-72
2021/06/18 04:18:54;;;;;;;12.90;7.73;;;;;;;-143.90;100.00;58478.06;5072292;28;20407;-70
2021/06/18 04:21:22;;;;;;;11.00;7.60;;;;;;;-143.90;100.00;58478.06;5060488;28;20801;-67
2021/06/18 04:23:47;;;;;;;14.53;7.97;;;;;;;-143.90;100.00;58478.06;5066841;28;20414;-70
2021/06/18 04:26:13;;;;;;;9.03;7.87;;;;;;;-143.90;100.00;58478.06;5073346;28;20468;-72
2021/06/18 04:28:39;;;;;;;11.50;7.70;;;;;;;-143.90;100.00;58478.06;5070631;28;20196;-74
2021/06/18 04:31:05;;;;;;;9.57;7.23;;;;;;;-143.90;100.00;58478.06;5071697;28;20160;-69
2021/06/18 04:33:32;;;;;;;9.60;8.20;;;;;;;-143.90;100.00;58478.06;5064812;28;20503;-69
2021/06/18 04:35:58;;;;;;;9.50;8.07;;;;;;;-143.90;100.00;58478.06;5067134;28;20459;-71
2021/06/18 04:38:24;;;;;;;9.30;8.00;;;;;;;-143.90;100.00;58478.06;5058748;28;20446;-71
2021/06/18 04:40:51;;;;;;;9.10;8.10;;;;;;;-143.90;100.00;58478.06;5059354;28;20256;-70
2021/06/18 04:43:17;;;;;;;10.50;7.90;;;;;;;-143.90;100.00;58478.06;5068495;28;20687;-69
2021/06/18 04:45:43;;;;;;;8.70;7.60;;;;;;;-143.90;100.00;58478.06;5074066;28;20442;-69
2021/06/18 04:48:09;;;;;;;7.87;6.97;;;;;;;-143.90;100.00;58478.06;5073920;28;20417;-74
2021/06/18 04:50:35;;;;;;;9.20;7.40;;;;;;;-143.90;100.00;58478.06;5073528;28;20168;-71
2021/06/18 04:53:01;;;;;;;13.03;8.17;;;;;;;-143.90;100.00;58478.06;5073934;28;20464;-72
2021/06/18 04:55:27;;;;;;;9.93;7.93;;;;;;;-143.90;100.00;58478.06;5069498;28;20160;-71
2021/06/18 04:57:53;;;;;;;9.63;8.10;;;;;;;-143.90;100.00;58478.06;5058125;28;20505;-71
2021/06/18 05:00:23;;;;;;;10.10;7.00;;;;;;;-143.90;100.00;58478.06;5072699;28;20432;-71
2021/06/18 05:02:48;;;;;;;8.57;7.40;;;;;;;-143.90;100.00;58478.06;5073727;28;20218;-72
2021/06/18 05:05:14;;;;;;;12.83;7.20;;;;;;;-143.90;100.00;58478.06;5073523;28;20454;-71
2021/06/18 05:07:39;;;;;;;13.20;7.63;;;;;;;-143.90;100.00;58478.06;5068798;28;20183;-73
2021/06/18 05:10:06;;;;;;;9.93;7.60;;;;;;;-143.90;100.00;58478.06;5053726;28;20689;-77
2021/06/18 05:12:31;;;;;;;8.73;7.60;;;;;;;-143.90;100.00;58478.06;5061255;28;20172;-71
2021/06/18 05:14:57;;;;;;;12.07;8.43;;;;;;;-143.90;100.00;58478.06;5073077;28;20456;-74
2021/06/18 05:17:22;;;;;;;9.90;8.90;;;;;;;-143.90;100.00;58478.06;5073131;28;20168;-72
2021/06/18 05:19:48;;;;;;;8.50;7.60;;;;;;;-143.90;100.00;58478.06;5073609;28;20218;-75
2021/06/18 05:22:13;;;;;;;13.73;7.67;;;;;;;-143.90;100.00;58478.06;5064889;28;20165;-72
2021/06/18 05:24:39;;;;;;;8.80;6.80;;;;;;;-143.90;100.00;58478.06;5066968;28;20196;-71
2021/06/18 05:27:04;;;;;;;10.20;6.97;;;;;;;-143.90;100.00;58478.06;5068430;28;20172;-78
2021/06/18 05:29:30;;;;;;;8.80;7.13;;;;;;;-143.90;100.00;58478.06;5063940;28;20197;-70
2021/06/18 05:31:55;;;;;;;8.77;6.50;;;;;;;-143.90;100.00;58478.06;5071283;28;20203;-69
2021/06/18 05:34:21;;;;;;;9.43;6.33;;;;;;;-143.90;100.00;58478.06;5073061;28;20642;-70
2021/06/18 05:36:47;;;;;;;7.70;6.57;;;;;;;-143.90;100.00;58478.06;5056334;28;20177;-79
2021/06/18 05:39:15;;;;;;;7.80;6.57;;;;;;;-143.90;100.00;58478.06;5053190;28;20244;-72
2021/06/18 05:41:42;;;;;;;9.13;7.53;;;;;;;-143.90;100.00;58478.06;5052839;28;20156;-72
2021/06/18 05:44:08;;;;;;;7.40;6.60;;;;;;;-143.90;100.00;58478.06;5053212;28;20952;-71
2021/06/18 05:46:33;;;;;;;8.83;6.73;;;;;;;-143.90;100.00;58478.06;5052926;28;20419;-71
2021/06/18 05:49:00;;;;;;;7.40;6.60;;;;;;;-143.90;100.00;58478.06;5053287;28;20185;-70
2021/06/18 05:51:25;;;;;;;10.10;6.60;;;;;;;-143.90;100.00;58478.06;5052593;28;20187;-72
2021/06/18 05:53:53;;;;;;;7.80;6.50;;;;;;;-143.90;100.00;58478.06;5035293;28;20424;-71
2021/06/18 05:56:19;;;;;;;10.43;7.33;;;;;;;-143.90;100.00;58478.06;5057259;28;20172;-72
2021/06/18 05:58:45;;;;;;;12.00;6.80;;;;;;;-143.90;100.00;58478.06;5066959;28;20406;-72
2021/06/18 06:01:10;;;;;;;8.17;6.77;;;;;;;-143.90;100.00;58478.06;5066712;28;20793;-76
2021/06/18 06:03:36;;;;;;;8.70;7.40;;;;;;;-143.90;100.00;58478.06;5064576;28;20212;-73
2021/06/18 06:06:01;;;;;;;9.47;7.80;;;;;;;-143.90;100.00;58478.06;5067784;28;20212;-72
2021/06/18 06:08:29;;;;;;;8.23;7.20;;;;;;;-143.90;100.00;58478.06;5056561;28;20173;-69
2021/06/18 06:10:56;;;;;;;10.13;7.67;;;;;;;-143.90;100.00;58478.06;5059846;28;20577;-71
2021/06/18 06:13:22;;;;;;;9.67;7.53;;;;;;;-143.90;100.00;58478.06;5052585;28;20400;-71
2021/06/18 06:15:49;;;;;;;10.53;6.63;;;;;;;-143.90;100.00;58478.06;5071319;28;20424;-70
2021/06/18 06:18:14;;;;;;;8.60;7.40;;;;;;;-143.90;100.00;58478.06;5072378;28;20431;-72
2021/06/18 06:20:41;;;;;;;9.90;7.43;;;;;;;-143.90;100.00;58478.06;5072456;28;20417;-72
2021/06/18 06:23:08;;;;;;;9.97;7.47;;;;;;;-143.90;100.00;58478.06;5072566;28;20387;-73
2021/06/18 06:25:33;;;;;;;10.80;7.70;;;;;;;-143.90;100.00;58478.06;5071247;28;20862;-70
2021/06/18 06:27:59;;;;;;;11.57;8.77;;;;;;;-143.90;100.00;58478.06;5052813;28;21039;-79
2021/06/18 06:30:25;;;;;;;17.17;8.40;;;;;;;-143.90;100.00;58478.06;5052572;28;20227;-75
2021/06/18 06:32:50;;;;;;;10.60;8.10;;;;;;;-143.90;100.00;58478.06;5069232;28;20163;-76
2021/06/18 06:35:16;;;;;;;9.37;8.00;;;;;;;-143.90;100.00;58478.06;5056030;28;20172;-69
2021/06/18 06:37:42;;;;;;;10.60;8.20;;;;;;;-143.90;100.00;58478.06;5062277;28;20172;-72
2021/06/18 06:40:09;;;;;;;14.90;7.83;;;;;;;-143.90;100.00;58478.06;5071293;28;20172;-72
2021/06/18 06:42:35;;;;;;;9.70;8.40;;;;;;;-143.90;100.00;58478.06;5071500;28;20472;-71
2021/06/18 06:45:01;;;;;;;16.47;9.50;;;;;;;-143.90;100.00;58478.06;5061849;28;20458;-68
2021/06/18 06:47:26;;;;;;;14.60;9.33;;;;;;;-143.90;100.00;58478.06;5051663;28;20161;-73
2021/06/18 06:49:52;;;;;;;12.70;9.37;;;;;;;-143.90;100.00;58478.06;5051697;28;20223;-70
2021/06/18 06:52:19;;;;;;;11.13;8.40;;;;;;;-143.90;100.00;58478.06;5056643;28;20573;-69
2021/06/18 06:54:44;;;;;;;10.50;8.43;;;;;;;-143.90;100.00;58478.06;5071340;28;20274;-72
2021/06/18 06:57:11;;;;;;;12.43;10.07;;;;;;;-143.90;100.00;58478.06;5071574;28;20790;-70
2021/06/18 06:59:36;;;;;;;10.40;9.23;;;;;;;-143.90;100.00;58478.06;5072067;28;20554;-75
2021/06/18 07:02:03;;;;;;;13.33;10.00;;;;;;;-143.90;100.00;58478.06;5054715;28;20972;-72
2021/06/18 07:04:29;;;;;;;15.33;9.50;;;;;;;-143.90;100.00;58478.06;5057544;28;20303;-72
2021/06/18 07:06:55;;;;;;;11.00;9.27;;;;;;;-143.90;100.00;58478.06;5054068;28;20510;-76
2021/06/18 07:09:20;;;;;;;10.83;8.00;;;;;;;-143.90;100.00;58478.06;5062698;28;20407;-70
2021/06/18 07:11:46;;;;;;;12.07;8.80;;;;;;;-143.90;100.00;58478.06;5066717;28;20200;-71
2021/06/18 07:14:11;;;;;;;11.60;8.93;;;;;;;-143.90;100.00;58478.06;5052732;28;20176;-73
2021/06/18 07:16:37;;;;;;;12.80;9.90;;;;;;;-143.90;100.00;58478.06;5068257;28;20168;-72
2021/06/18 07:19:02;;;;;;;13.50;8.87;;;;;;;-143.90;100.00;58478.06;5059997;28;20200;-70
2021/06/18 07:21:29;;;;;;;12.20;10.13;;;;;;;-143.90;100.00;58478.06;5054569;28;20607;-72
2021/06/18 07:23:54;;;;;;;11.30;10.13;;;;;;;-143.90;100.00;58478.06;5058934;28;20244;-69
2021/06/18 07:26:20;;;;;;;12.57;10.03;;;;;;;-143.90;100.00;58478.06;5054428;28;20837;-69
2021/06/18 07:28:45;;;;;;;14.67;11.43;;;;;;;-143.90;100.00;58478.06;5067389;28;20222;-71
2021/06/18 07:31:11;;;;;;;16.33;10.73;;;;;;;-143.90;100.00;58478.06;5057577;28;20620;-70
2021/06/18 07:33:37;;;;;;;16.83;11.93;;;;;;;-143.90;100.00;58478.06;5061676;28;20269;-70
2021/06/18 07:36:02;;;;;;;15.60;12.10;;;;;;;-143.90;100.00;58478.06;5055589;28;20172;-70
2021/06/18 07:38:28;;;;;;;17.53;12.10;;;;;;;-143.90;100.00;58478.06;5062009;28;20169;-74
2021/06/18 07:40:53;;;;;;;15.30;12.10;;;;;;;-143.90;100.00;58478.06;5051062;28;20516;-78
2021/06/18 07:43:19;;;;;;;14.83;12.67;;;;;;;-143.90;100.00;58478.06;5050802;28;20203;-73
2021/06/18 07:45:44;;;;;;;16.03;13.27;;;;;;;-143.90;100.00;58478.06;5050703;28;20567;-72
2021/06/18 07:48:10;;;;;;;16.83;13.23;;;;;;;-143.90;100.00;58478.06;5050907;28;20208;-73
2021/06/18 07:50:38;;;;;;;16.07;12.90;;;;;;;-143.90;100.00;58478.06;5065454;28;20183;-68
2021/06/18 07:53:04;;;;;;;17.73;14.00;;;;;;;-143.90;100.00;58478.06;5062829;28;20169;-69
2021/06/18 07:55:30;;;;;;;21.83;15.57;;;;;;;-143.90;100.00;58478.06;5065416;28;20533;-72
2021/06/18 07:57:55;;;;;;;19.40;13.23;;;;;;;-143.90;100.00;58478.06;5059281;28;20418;-75
2021/06/18 08:00:21;;;;;;;15.80;14.10;;;;;;;-143.90;100.00;58478.06;5066614;28;20468;-69
2021/06/18 08:02:47;;;;;;;22.40;14.50;;;;;;;-143.90;100.00;58478.06;5062578;28;20216;-69
2021/06/18 08:05:13;;;;;;;18.50;14.20;;;;;;;-143.90;100.00;58478.06;5062638;28;20450;-73
2021/06/18 08:07:41;;;;;;;21.77;15.77;;;;;;;-143.90;100.00;58478.06;5060928;28;20188;-71
2021/06/18 08:10:09;;;;;;;18.13;15.63;;;;;;;-143.90;100.00;58478.06;5063303;28;20403;-71
2021/06/18 08:12:35;;;;;;;16.27;14.67;;;;;;;-143.90;100.00;58478.06;5050463;28;20396;-70
2021/06/18 08:15:01;;;;;;;13.70;12.27;;;;;;;-143.90;100.00;58478.06;5050149;28;20400;-77
2021/06/18 08:17:26;;;;;;;12.60;11.20;;;;;;;-143.90;100.00;58478.06;5057269;28;20861;-73
2021/06/18 08:19:52;;;;;;;15.20;11.43;;;;;;;-143.90;100.00;58478.06;5059288;28;20263;-75
2021/06/18 08:22:18;;;;;;;12.17;10.87;;;;;;;-143.90;100.00;58478.06;5056182;28;20247;-71
2021/06/18 08:24:44;;;;;;;13.10;10.40;;;;;;;-143.90;100.00;58478.06;5068470;28;20192;-69
2021/06/18 08:27:09;;;;;;;13.00;11.23;;;;;;;-143.90;100.00;58478.06;5050691;28;20783;-69
2021/06/18 08:29:35;;;;;;;13.47;10.40;;;;;;;-143.90;100.00;58478.06;5064665;28;20607;-71
2021/06/18 08:32:01;;;;;;;13.17;11.30;;;;;;;-143.90;100.00;58478.06;5058243;28;20166;-71
2021/06/18 08:34:27;;;;;;;15.40;12.17;;;;;;;-143.90;100.00;58478.06;5070020;28;20394;-72
2021/06/18 08:36:52;;;;;;;14.23;11.97;;;;;;;-143.90;100.00;58478.06;5060013;28;20251;-72
2021/06/18 08:39:18;;;;;;;13.80;10.83;;;;;;;-143.90;100.00;58478.06;5057139;28;20195;-67
2021/06/18 08:41:44;;;;;;;12.80;11.30;;;;;;;-143.90;100.00;58478.06;5053121;28;20167;-74
2021/06/18 08:44:09;;;;;;;13.60;11.47;;;;;;;-143.90;100.00;58478.06;5055794;28;20226;-70
2021/06/18 08:46:35;;;;;;;13.10;11.37;;;;;;;-143.90;100.00;58478.06;5070224;28;20652;-69
2021/06/18 08:49:00;;;;;;;10.77;8.77;;;;;;;-143.90;100.00;58478.06;5066135;28;20702;-70
2021/06/18 08:51:26;;;;;;;10.90;8.97;;;;;;;-143.90;100.00;58478.06;5059442;28;20198;-74
2021/06/18 08:53:52;;;;;;;10.47;7.67;;;;;;;-143.90;100.00;58478.06;5067776;28;20160;-73
2021/06/18 08:56:19;;;;;;;11.00;8.50;;;;;;;-143.90;100.00;58478.06;5073073;28;20164;-72
2021/06/18 08:58:44;;;;;;;9.67;8.37;;;;;;;-143.90;100.00;58478.06;5073808;28;20157;-71
2021/06/18 09:01:11;;;;;;;9.60;7.10;;;;;;;-143.90;100.00;58478.06;5073444;28;20770;-72
2021/06/18 09:03:45;;;;;;;7.80;6.73;;;;;;;-143.90;100.00;58478.06;5072926;28;20180;-71
2021/06/18 09:06:36;;;;;;;10.70;6.93;;;;;;;-143.90;100.00;58478.06;5072974;28;21005;-74
2021/06/18 09:09:17;;;;;;;9.30;7.00;;;;;;;-143.90;100.00;58478.06;5072567;28;20843;-71
2021/06/18 09:11:53;;;;;;;7.20;6.50;;;;;;;-143.90;100.00;58478.06;5072771;28;20402;-71
2021/06/18 09:14:26;;;;;;;6.93;6.10;;;;;;;-143.90;100.00;58478.06;5072688;28;20394;-72
2021/06/18 09:17:07;;;;;;;7.87;7.10;;;;;;;-143.90;100.00;58478.06;5066870;28;20430;-84
2021/06/18 09:19:35;;;;;;;5.87;5.00;;;;;;;-143.90;100.00;58478.06;5054761;28;20408;-80
2021/06/18 09:22:07;;;;;;;5.83;4.80;;;;;;;-143.90;100.00;58478.06;5055756;28;20852;-72
2021/06/18 09:24:39;;;;;;;6.60;5.43;;;;;;;-143.90;100.00;58478.06;5058939;28;20447;-69
2021/06/18 09:27:06;;;;;;;6.87;4.87;;;;;;;-143.90;100.00;58478.06;5052732;28;20414;-68
2021/06/18 09:29:32;;;;;;;5.60;5.00;;;;;;;-143.90;100.00;58478.06;5060796;28;20468;-73
2021/06/18 09:32:01;;;;;;;5.80;5.10;;;;;;;-143.90;100.00;58478.06;5051972;28;20491;-69
2021/06/18 09:37:36;;;;;;;5.67;5.00;;;;;;;-143.90;100.00;58478.06;5072406;28;20782;-69
2021/06/18 09:40:15;;;;;;;6.93;5.43;;;;;;;-143.90;100.00;58478.06;5072221;28;20408;-69
2021/06/18 09:42:56;;;;;;;9.07;5.47;;;;;;;-143.90;100.00;58478.06;5057568;28;20920;-67
2021/06/18 09:45:25;;;;;;;9.87;5.27;;;;;;;-143.90;100.00;58478.06;5066606;28;20505;-68
2021/06/18 09:47:52;;;;;;;5.77;3.70;;;;;;;-143.90;100.00;58478.06;5052178;28;20404;-69
2021/06/18 09:50:26;;;;;;;6.20;4.20;;;;;;;-143.90;100.00;58478.06;5052211;28;20514;-69
2021/06/18 09:53:15;;;;;;;6.13;4.03;;;;;;;-143.90;100.00;58478.06;5051549;28;20469;-69
2021/06/18 09:55:43;;;;;;;4.73;3.73;;;;;;;-143.90;100.00;58478.06;5051685;28;20392;-71
2021/06/18 09:58:09;;;;;;;5.60;3.90;;;;;;;-143.90;100.00;58478.06;5070733;28;20402;-69
2021/06/18 10:00:35;;;;;;;5.90;3.80;;;;;;;-143.90;100.00;58478.06;5071564;28;20399;-69
2021/06/18 10:03:01;;;;;;;5.07;3.13;;;;;;;-143.90;100.00;58478.06;5064201;28;20490;-68
2021/06/18 10:05:27;;;;;;;7.40;4.67;;;;;;;-143.90;100.00;58478.06;5057969;28;20570;-70
2021/06/18 10:07:55;;;;;;;5.70;4.20;;;;;;;-143.90;100.00;58478.06;5071612;28;20171;-85
2021/06/18 10:10:22;;;;;;;6.83;3.80;;;;;;;-143.90;100.00;58478.06;5071826;28;20395;-82
2021/06/18 10:12:49;;;;;;;4.87;3.37;;;;;;;-143.90;100.00;58478.06;5072426;28;20456;-85
2021/06/18 10:15:20;;;;;;;5.20;3.47;;;;;;;-143.90;100.00;58478.06;5072290;28;20387;-76
2021/06/18 10:17:48;;;;;;;9.50;7.57;;;;;;;-143.90;100.00;58478.06;5070965;28;20505;-73
2021/06/18 10:20:23;;;;;;;4.97;3.90;;;;;;;-143.90;100.00;58478.06;5071052;28;20897;-78
2021/06/18 10:22:59;;;;;;;6.77;4.17;;;;;;;-143.90;100.00;58478.06;5062824;28;20400;-76
2021/06/18 10:25:27;;;;;;;3.80;3.00;;;;;;;-143.90;100.00;58478.06;5051223;28;20504;-77
2021/06/18 10:27:54;;;;;;;6.70;4.30;;;;;;;-143.90;100.00;58478.06;5063349;28;20409;-71
2021/06/18 10:30:25;;;;;;;4.13;3.00;;;;;;;-143.90;100.00;58478.06;5071404;28;20391;-69
2021/06/18 10:32:52;;;;;;;11.20;7.70;;;;;;;-143.90;100.00;58478.06;5071336;28;20788;-75
2021/06/18 10:35:41;;;;;;;5.13;4.07;;;;;;;-143.90;100.00;58478.06;5071694;28;20395;-70
2021/06/18 10:38:25;;;;;;;8.13;6.90;;;;;;;-143.90;100.00;58478.06;5068038;28;20406;-72
2021/06/18 10:40:51;;;;;;;4.30;3.30;;;;;;;-143.90;100.00;58478.06;5051615;28;20396;-81
2021/06/18 10:43:17;;;;;;;4.53;3.20;;;;;;;-143.90;100.00;58478.06;5051380;28;20388;-71
2021/06/18 10:45:57;;;;;;;3.57;2.77;;;;;;;-143.90;100.00;58478.06;5051051;28;20454;-74
2021/06/18 10:48:44;;;;;;;3.97;2.87;;;;;;;-143.90;100.00;58478.06;5036270;28;20666;-68
2021/06/18 10:51:30;;;;;;;5.07;3.60;;;;;;;-143.90;100.00;58478.06;5054962;28;20500;-71
2021/06/18 10:54:04;;;;;;;4.23;3.00;;;;;;;-143.90;100.00;58478.06;5052265;28;20411;-70
2021/06/18 10:57:25;;;;;;;3.90;2.60;;;;;;;-143.90;100.00;58478.06;5057874;28;20471;-67
2021/06/18 11:00:20;;;;;;;4.60;3.40;;;;;;;-143.90;100.00;58478.06;5051035;28;20404;-69
2021/06/18 11:02:46;;;;;;;5.20;3.30;;;;;;;-143.90;100.00;58478.06;5050622;28;20451;-69
2021/06/18 11:05:14;;;;;;;7.03;3.10;;;;;;;-143.90;100.00;58478.06;5050438;28;20448;-70
2021/06/18 11:07:41;;;;;;;5.17;3.37;;;;;;;-143.90;100.00;58478.06;5050465;28;20252;-71
2021/06/18 11:10:17;;;;;;;4.10;2.50;;;;;;;-143.90;100.00;58478.06;5059962;28;20403;-71
2021/06/18 11:12:48;;;;;;;8.57;3.97;;;;;;;-143.90;100.00;58478.06;5050642;28;20446;-69